Time;durP1;ratioP1;P1;durP2;ratioP2;P2;SDS_P1;SDS_P2;PMS_P1;PMS_P2;Temp;Humidity;BMP_temperature;BMP_pressure;BME280_temperature;BME280_humidity;BME280_pressure;Samples;Min_cycle;Max_cycle;Signal;HPM_P1;HPM_P2
2022/10/19 00:34:36;;;;;;;18.03;9.60;;;;;;;15.27;100.00;99120.94;5053725;22;3330152;-95
2022/10/19 00:36:40;;;;;;;22.60;10.23;;;;;;;15.28;100.00;99119.19;5127969;23;20964;-96
2022/10/19 00:38:44;;;;;;;31.27;11.60;;;;;;;15.29;100.00;99126.09;5152904;23;20630;-96
2022/10/19 00:40:48;;;;;;;20.83;10.17;;;;;;;15.29;100.00;99123.47;5151532;23;20648;-96
2022/10/19 00:42:54;;;;;;;44.10;12.00;;;;;;;15.29;100.00;99132.22;5151510;23;20864;-95
2022/10/19 00:45:06;;;;;;;24.63;9.80;;;;;;;15.33;100.00;99132.81;5151669;23;20606;-96
2022/10/19 00:47:10;;;;;;;20.77;10.00;;;;;;;15.35;100.00;99138.81;5152547;23;20613;-96
2022/10/19 00:49:16;;;;;;;17.50;9.60;;;;;;;15.33;100.00;99131.03;5151391;23;20591;-96
2022/10/19 00:51:21;;;;;;;19.23;9.43;;;;;;;15.34;100.00;99126.63;5151262;23;20904;-96
2022/10/19 00:53:25;;;;;;;21.77;9.93;;;;;;;15.34;100.00;99126.63;5152236;23;20661;-95
2022/10/19 00:55:29;;;;;;;15.77;9.70;;;;;;;15.30;100.00;99115.47;5150344;23;21114;-96
2022/10/19 00:57:32;;;;;;;18.80;9.80;;;;;;;15.29;100.00;99118.22;5148591;23;20587;-95
2022/10/19 00:59:36;;;;;;;17.70;9.97;;;;;;;15.29;100.00;99107.69;5146702;23;20578;-96
2022/10/19 01:01:40;;;;;;;30.70;12.20;;;;;;;15.32;100.00;99115.38;5147305;23;20579;-96
2022/10/19 01:03:43;;;;;;;25.63;11.43;;;;;;;15.29;100.00;99120.84;5145977;23;20587;-96
2022/10/19 01:05:47;;;;;;;19.73;10.73;;;;;;;15.24;100.00;99109.81;5145161;23;20615;-95
2022/10/19 01:07:52;;;;;;;20.00;11.10;;;;;;;15.23;100.00;99110.75;5145964;23;20621;-95
2022/10/19 01:09:56;;;;;;;13.67;10.80;;;;;;;15.23;100.00;99109.00;5121242;23;21101;-96
2022/10/19 01:12:05;;;;;;;16.63;9.90;;;;;;;15.27;100.00;99112.22;5121034;23;21159;-95
2022/10/19 01:14:20;;;;;;;13.03;10.20;;;;;;;15.26;100.00;99116.66;5121327;23;20678;-96
2022/10/19 01:16:29;;;;;;;16.23;11.10;;;;;;;15.27;100.00;99110.44;5120478;23;21100;-96
2022/10/19 01:18:40;;;;;;;13.33;10.50;;;;;;;15.29;100.00;99112.94;5120743;23;20588;-96
2022/10/19 01:21:05;;;;;;;16.70;11.90;;;;;;;15.35;100.00;99113.38;5121168;23;20567;-96
2022/10/19 01:23:31;;;;;;;15.93;11.90;;;;;;;15.39;100.00;99112.19;5121181;23;20662;-96
2022/10/19 01:25:48;;;;;;;15.23;11.90;;;;;;;15.46;100.00;99118.72;5121672;23;20588;-96
2022/10/19 01:28:03;;;;;;;18.20;12.23;;;;;;;15.51;100.00;99113.94;5120958;23;20615;-96
2022/10/19 01:30:12;;;;;;;24.83;13.73;;;;;;;15.55;100.00;99115.41;5122304;23;20604;-96
2022/10/19 01:32:20;;;;;;;16.93;12.00;;;;;;;15.63;100.00;99118.34;5122006;23;20600;-95
2022/10/19 01:34:26;;;;;;;18.10;12.60;;;;;;;15.62;100.00;99106.97;5121017;23;20575;-95
2022/10/19 01:36:36;;;;;;;18.10;12.60;;;;;;;15.67;100.00;99110.09;5121054;23;20655;-96
2022/10/19 01:38:46;;;;;;;16.50;12.23;;;;;;;15.68;100.00;99105.69;5121379;23;20589;-96
2022/10/19 01:40:55;;;;;;;19.20;12.30;;;;;;;15.68;100.00;99098.66;5122495;23;20984;-96
2022/10/19 01:43:03;;;;;;;14.53;11.83;;;;;;;15.76;100.00;99100.72;5122994;23;20610;-96
2022/10/19 01:45:13;;;;;;;15.70;12.70;;;;;;;15.83;100.00;99109.81;5122329;23;20583;-96
2022/10/19 01:47:20;;;;;;;14.77;12.33;;;;;;;15.84;100.00;99104.44;5120200;23;20666;-95
2022/10/19 01:49:27;;;;;;;15.60;12.40;;;;;;;15.87;100.00;99101.59;5120860;23;20573;-96
2022/10/19 01:51:33;;;;;;;16.27;11.97;;;;;;;15.88;100.00;99097.19;5121203;23;20581;-95
2022/10/19 01:53:41;;;;;;;18.60;12.13;;;;;;;15.89;100.00;99094.44;5120512;23;20578;-96
2022/10/19 01:55:45;;;;;;;18.83;12.60;;;;;;;15.91;100.00;99096.97;5146427;23;20563;-96
2022/10/19 01:57:53;;;;;;;16.07;12.03;;;;;;;15.91;100.00;99087.28;5120523;23;20627;-96
2022/10/19 01:59:57;;;;;;;20.60;11.77;;;;;;;15.93;100.00;99084.53;5120880;23;20589;-96
2022/10/19 02:02:03;;;;;;;16.50;12.43;;;;;;;15.90;100.00;99082.94;5120691;23;21192;-96
2022/10/19 02:04:07;;;;;;;18.17;13.17;;;;;;;15.88;100.00;99082.25;5121373;23;20620;-96
2022/10/19 02:06:11;;;;;;;15.83;11.40;;;;;;;15.84;100.00;99078.13;5120817;23;20692;-95
2022/10/19 02:08:19;;;;;;;14.77;11.43;;;;;;;15.82;100.00;99074.78;5120548;23;20708;-96
2022/10/19 02:10:22;;;;;;;18.73;12.80;;;;;;;15.75;100.00;99073.56;5121253;23;20592;-96
2022/10/19 02:12:27;;;;;;;11.20;9.87;;;;;;;15.79;100.00;99072.38;5121602;23;20591;-96
2022/10/19 02:14:34;;;;;;;13.53;9.90;;;;;;;15.79;100.00;99066.31;5146272;23;20900;-96
2022/10/19 02:16:41;;;;;;;9.80;8.30;;;;;;;15.79;100.00;99058.41;5146802;23;20579;-96
2022/10/19 02:18:49;;;;;;;9.97;8.23;;;;;;;15.76;100.00;99051.56;5120901;23;20628;-96
2022/10/19 02:20:53;;;;;;;10.77;8.77;;;;;;;15.82;100.00;99059.00;5122250;23;20581;-96
2022/10/19 02:22:56;;;;;;;11.40;9.03;;;;;;;15.81;100.00;99049.44;5122009;23;20664;-96
2022/10/19 02:25:00;;;;;;;10.30;9.13;;;;;;;15.81;100.00;99046.78;5120963;23;20688;-96
2022/10/19 02:27:05;;;;;;;11.13;9.40;;;;;;;15.79;100.00;99050.50;5122539;23;20612;-96
2022/10/19 02:29:10;;;;;;;15.27;12.37;;;;;;;15.78;100.00;99044.41;5120433;23;20990;-95
2022/10/19 02:31:14;;;;;;;18.87;12.80;;;;;;;15.75;100.00;99051.69;5124135;23;20619;-96
2022/10/19 02:33:18;;;;;;;24.27;13.43;;;;;;;15.72;100.00;99044.84;5123200;23;20612;-96
2022/10/19 02:35:23;;;;;;;16.53;11.90;;;;;;;15.72;100.00;99044.84;5121707;23;20663;-96
2022/10/19 02:37:28;;;;;;;16.90;12.27;;;;;;;15.72;100.00;99044.00;5120919;23;20643;-96
2022/10/19 02:39:32;;;;;;;14.53;11.77;;;;;;;15.68;100.00;99050.44;5119808;23;20593;-96
2022/10/19 02:41:38;;;;;;;17.53;12.33;;;;;;;15.68;100.00;99048.66;5120152;23;20597;-96
2022/10/19 02:43:43;;;;;;;16.27;11.07;;;;;;;15.64;100.00;99041.94;5120799;23;20600;-96
2022/10/19 02:45:51;;;;;;;14.97;10.90;;;;;;;15.60;100.00;99047.53;5120705;23;20585;-96
2022/10/19 02:47:58;;;;;;;11.70;9.13;;;;;;;15.62;100.00;99056.16;5120997;23;20608;-96
2022/10/19 02:50:05;;;;;;;13.13;9.67;;;;;;;15.63;100.00;99048.16;5120542;23;20682;-96
2022/10/19 02:52:11;;;;;;;13.07;10.07;;;;;;;15.61;100.00;99044.81;5120585;23;20580;-96
2022/10/19 02:54:14;;;;;;;17.50;11.27;;;;;;;15.62;100.00;99041.22;5120845;23;20692;-96
2022/10/19 02:56:17;;;;;;;19.63;11.53;;;;;;;15.57;100.00;99029.34;5121145;23;20592;-96
2022/10/19 02:58:21;;;;;;;15.50;11.70;;;;;;;15.55;100.00;99036.53;5120876;23;20584;-96
2022/10/19 03:00:24;;;;;;;18.10;11.00;;;;;;;15.54;100.00;99029.56;5120082;23;20671;-96
2022/10/19 03:02:27;;;;;;;14.30;9.10;;;;;;;15.53;100.00;99027.91;5120929;23;20577;-96
2022/10/19 03:04:31;;;;;;;14.07;9.30;;;;;;;15.53;100.00;99030.56;5120571;23;21137;-96
2022/10/19 03:06:34;;;;;;;13.43;9.57;;;;;;;15.55;100.00;99033.06;5120085;23;20624;-96
2022/10/19 03:08:39;;;;;;;12.73;9.07;;;;;;;15.53;100.00;99027.91;5120057;23;21187;-96
2022/10/19 03:10:42;;;;;;;11.67;8.30;;;;;;;15.55;100.00;99030.44;5119623;23;20685;-96
2022/10/19 03:12:46;;;;;;;10.40;7.80;;;;;;;15.56;100.00;99031.16;5120663;23;20575;-96
2022/10/19 03:14:49;;;;;;;12.33;9.10;;;;;;;15.55;100.00;99035.69;5120181;23;20608;-96
2022/10/19 03:16:53;;;;;;;8.90;7.77;;;;;;;15.54;100.00;99034.00;5119745;23;21192;-96
2022/10/19 03:18:56;;;;;;;10.40;7.57;;;;;;;15.51;100.00;99027.19;5145085;23;20572;-96
2022/10/19 03:21:02;;;;;;;10.43;8.30;;;;;;;15.55;100.00;99030.44;5119013;23;20610;-96
2022/10/19 03:23:06;;;;;;;9.70;7.77;;;;;;;15.55;100.00;99026.84;5120451;23;20599;-96
2022/10/19 03:25:11;;;;;;;11.03;7.97;;;;;;;15.55;100.00;99014.66;5121070;23;20592;-96
2022/10/19 03:27:15;;;;;;;9.90;8.27;;;;;;;15.55;100.00;99019.91;5120196;23;20611;-96
2022/10/19 03:29:18;;;;;;;8.53;6.67;;;;;;;15.54;100.00;99018.22;5120788;23;20608;-96
2022/10/19 03:31:21;;;;;;;9.00;7.20;;;;;;;15.55;100.00;99022.56;5119689;23;20628;-96
2022/10/19 03:33:25;;;;;;;9.07;6.77;;;;;;;15.54;100.00;99024.31;5121376;23;20589;-96
2022/10/19 03:35:44;;;;;;;8.50;6.50;;;;;;;15.52;100.00;99022.78;5121070;23;21038;-96
2022/10/19 03:37:50;;;;;;;7.70;6.80;;;;;;;15.50;100.00;99020.25;5120241;23;20581;-96
2022/10/19 03:39:54;;;;;;;13.90;7.03;;;;;;;15.52;100.00;99035.91;5120376;23;20585;-96
2022/10/19 03:41:59;;;;;;;7.90;6.63;;;;;;;15.47;100.00;99023.09;5120374;23;20589;-96
2022/10/19 03:44:02;;;;;;;15.40;7.40;;;;;;;15.47;100.00;99027.50;5119784;23;20589;-96
2022/10/19 03:46:06;;;;;;;9.50;6.90;;;;;;;15.45;100.00;99022.34;5120850;23;20588;-96
2022/10/19 03:48:09;;;;;;;8.00;6.77;;;;;;;15.43;100.00;99016.38;5120443;23;20618;-95
2022/10/19 03:50:15;;;;;;;9.27;6.70;;;;;;;15.37;100.00;99016.81;5120246;23;20634;-96
2022/10/19 03:52:19;;;;;;;8.90;6.50;;;;;;;15.31;100.00;99011.19;5119262;23;20572;-96
2022/10/19 03:54:23;;;;;;;9.77;7.27;;;;;;;15.29;100.00;99013.06;5120001;23;20623;-96
2022/10/19 03:56:31;;;;;;;10.73;7.53;;;;;;;15.29;100.00;99019.19;5120769;23;20613;-96
2022/10/19 03:58:37;;;;;;;9.60;7.93;;;;;;;15.27;100.00;99014.97;5119866;23;20916;-96
2022/10/19 04:00:40;;;;;;;9.40;7.30;;;;;;;15.29;100.00;99018.31;5119873;23;21157;-96
2022/10/19 04:02:44;;;;;;;9.40;7.87;;;;;;;15.27;100.00;99020.22;5119655;23;20580;-96
2022/10/19 04:04:47;;;;;;;9.73;7.97;;;;;;;15.30;100.00;99020.00;5144401;23;20631;-96
2022/10/19 04:06:52;;;;;;;10.50;8.00;;;;;;;15.31;100.00;99017.28;5120459;23;20627;-96
2022/10/19 04:08:55;;;;;;;9.40;7.97;;;;;;;15.35;100.00;99020.50;5120656;23;20659;-96
2022/10/19 04:11:01;;;;;;;11.83;8.47;;;;;;;15.35;100.00;99021.38;5144446;23;20963;-96
2022/10/19 04:13:04;;;;;;;9.87;7.53;;;;;;;15.37;100.00;99026.50;5119377;23;20674;-96
2022/10/19 04:15:10;;;;;;;9.50;7.70;;;;;;;15.37;100.00;99023.88;5119685;23;20918;-96
2022/10/19 04:17:13;;;;;;;10.60;7.70;;;;;;;15.35;100.00;99025.75;5123161;23;20576;-96
2022/10/19 04:19:17;;;;;;;12.93;8.60;;;;;;;15.24;100.00;99026.53;5119684;23;20610;-96
2022/10/19 04:21:24;;;;;;;12.43;9.20;;;;;;;15.15;100.00;99015.81;5124711;23;20601;-96
2022/10/19 04:23:33;;;;;;;9.20;7.70;;;;;;;15.12;100.00;99008.16;5132300;23;20590;-96
2022/10/19 04:25:38;;;;;;;14.27;9.17;;;;;;;15.12;100.00;99006.38;5127743;23;20609;-96
2022/10/19 04:27:45;;;;;;;14.20;9.60;;;;;;;15.11;100.00;99015.22;5127927;23;21033;-96
2022/10/19 04:29:57;;;;;;;10.17;8.50;;;;;;;15.10;100.00;99010.06;5129803;23;20656;-96
2022/10/19 04:32:06;;;;;;;12.47;9.60;;;;;;;15.15;100.00;99018.44;5104911;23;20597;-96
2022/10/19 04:34:11;;;;;;;16.13;10.40;;;;;;;15.09;100.00;99008.38;5103177;23;20585;-96
2022/10/19 04:36:16;;;;;;;12.90;10.47;;;;;;;15.11;100.00;99004.69;5100845;23;20620;-96
2022/10/19 04:38:20;;;;;;;12.77;9.67;;;;;;;15.09;100.00;99005.75;5103361;23;20678;-96
2022/10/19 04:40:25;;;;;;;10.90;8.67;;;;;;;15.07;100.00;99002.41;5128721;23;20588;-96
2022/10/19 04:42:29;;;;;;;13.77;8.83;;;;;;;15.05;100.00;99004.31;5104315;23;20630;-96
2022/10/19 04:44:33;;;;;;;13.97;9.73;;;;;;;15.06;100.00;99016.47;5127862;23;20590;-96
2022/10/19 04:46:37;;;;;;;13.37;9.53;;;;;;;15.02;100.00;99006.28;5103426;23;20580;-96
2022/10/19 04:48:44;;;;;;;15.10;10.20;;;;;;;15.04;100.00;99017.56;5125904;23;20616;-96
2022/10/19 04:50:48;;;;;;;11.20;9.77;;;;;;;15.05;100.00;99014.81;5103010;23;20582;-96
2022/10/19 04:53:01;;;;;;;14.27;9.53;;;;;;;15.05;100.00;99019.22;5134528;23;20647;-96
2022/10/19 04:55:07;;;;;;;15.77;10.10;;;;;;;15.00;100.00;99014.28;5101983;23;20574;-96
2022/10/19 04:57:10;;;;;;;13.83;9.87;;;;;;;15.03;100.00;99021.13;5126534;23;20591;-96
2022/10/19 04:59:14;;;;;;;18.53;10.10;;;;;;;14.98;100.00;99015.38;5123857;23;20603;-96
2022/10/19 05:01:19;;;;;;;13.23;10.10;;;;;;;14.97;100.00;99016.31;5121489;23;20588;-93
2022/10/19 05:03:23;;;;;;;12.10;10.10;;;;;;;14.90;100.00;99010.66;5120643;23;20603;-95
2022/10/19 05:05:28;;;;;;;12.47;9.80;;;;;;;14.89;100.00;99014.22;5096275;23;20643;-96
2022/10/19 05:07:31;;;;;;;13.97;10.30;;;;;;;14.88;100.00;99027.47;5096097;23;20680;-96
2022/10/19 05:09:36;;;;;;;13.17;9.90;;;;;;;14.85;100.00;99022.41;5096498;23;20679;-96
2022/10/19 05:11:39;;;;;;;12.90;9.70;;;;;;;14.83;100.00;99026.94;5096421;23;20632;-96
2022/10/19 05:13:43;;;;;;;12.33;10.00;;;;;;;14.82;100.00;99028.72;5098280;23;20687;-96
2022/10/19 05:15:55;;;;;;;11.40;9.50;;;;;;;14.78;100.00;99029.91;5096632;23;20952;-96
2022/10/19 05:17:59;;;;;;;12.83;10.30;;;;;;;14.77;100.00;99024.75;5096964;23;21002;-96
2022/10/19 05:20:03;;;;;;;15.53;10.43;;;;;;;14.72;100.00;99027.69;5122496;23;20586;-96
2022/10/19 05:22:13;;;;;;;15.23;10.90;;;;;;;14.71;100.00;99025.19;5129432;23;20583;-96
2022/10/19 05:24:41;;;;;;;10.70;8.90;;;;;;;14.66;100.00;99028.13;5100433;23;20590;-96
2022/10/19 05:26:44;;;;;;;13.20;8.80;;;;;;;14.70;100.00;99029.59;5097111;23;20608;-96
2022/10/19 05:28:48;;;;;;;11.27;8.70;;;;;;;14.70;100.00;99029.59;5122255;23;20712;-96
2022/10/19 05:30:52;;;;;;;15.47;9.00;;;;;;;14.73;100.00;99033.78;5095717;23;20650;-96
2022/10/19 05:32:55;;;;;;;11.87;9.03;;;;;;;14.73;100.00;99028.53;5096859;23;20672;-96
2022/10/19 05:34:59;;;;;;;11.30;8.80;;;;;;;14.77;100.00;99033.47;5097507;23;20597;-96
2022/10/19 05:37:02;;;;;;;12.80;9.13;;;;;;;14.81;100.00;99020.97;5099626;23;20603;-96
2022/10/19 05:39:10;;;;;;;11.67;8.90;;;;;;;14.84;100.00;99010.22;5097185;23;20593;-96
2022/10/19 05:41:15;;;;;;;11.40;8.87;;;;;;;14.82;100.00;99007.72;5098209;23;20576;-96
2022/10/19 05:43:19;;;;;;;14.27;9.60;;;;;;;14.78;100.00;99006.25;5104100;23;20589;-96
2022/10/19 05:45:23;;;;;;;13.30;9.73;;;;;;;14.75;100.00;99006.47;5100541;23;20588;-96
2022/10/19 05:47:30;;;;;;;15.00;10.83;;;;;;;14.76;100.00;99008.16;5124486;23;20595;-96
2022/10/19 05:49:35;;;;;;;15.43;10.90;;;;;;;14.72;100.00;99006.69;5099425;23;20616;-96
2022/10/19 05:51:39;;;;;;;16.07;11.93;;;;;;;14.73;100.00;99013.63;5121278;23;20577;-95
2022/10/19 05:53:42;;;;;;;14.70;10.37;;;;;;;14.68;100.00;99018.34;5121056;23;20610;-96
2022/10/19 05:55:47;;;;;;;17.93;11.10;;;;;;;14.57;100.00;99013.94;5099142;23;20953;-96
2022/10/19 05:57:51;;;;;;;18.03;11.47;;;;;;;14.54;100.00;99012.41;5099202;23;20583;-96
2022/10/19 05:59:57;;;;;;;18.00;12.33;;;;;;;14.53;100.00;99013.31;5100475;23;20593;-96
2022/10/19 06:02:00;;;;;;;16.70;11.90;;;;;;;14.57;100.00;99013.94;5123244;23;20591;-96
2022/10/19 06:04:05;;;;;;;16.90;12.10;;;;;;;14.60;100.00;99023.31;5123933;23;20615;-96
2022/10/19 06:06:22;;;;;;;17.60;12.50;;;;;;;14.60;100.00;99018.06;5124453;23;20621;-96
2022/10/19 06:08:25;;;;;;;19.90;12.83;;;;;;;14.62;100.00;99021.41;5126430;23;21005;-96
2022/10/19 06:10:29;;;;;;;18.30;12.03;;;;;;;14.60;100.00;99020.69;5099287;23;20676;-96
2022/10/19 06:12:38;;;;;;;24.47;16.30;;;;;;;14.64;100.00;99026.53;5126409;23;20591;-96
2022/10/19 06:18:14;;;;;;;19.30;13.00;;;;;;;14.68;100.00;99039.34;5121154;23;20592;-96
2022/10/19 06:20:18;;;;;;;18.13;11.90;;;;;;;14.71;100.00;99035.69;5098652;23;21151;-96
2022/10/19 06:22:21;;;;;;;19.70;13.13;;;;;;;14.72;100.00;99048.72;5092420;23;20584;-95
2022/10/19 06:24:24;;;;;;;17.80;12.07;;;;;;;14.76;100.00;99046.69;5117076;23;20580;-95
2022/10/19 06:26:28;;;;;;;19.50;12.40;;;;;;;14.83;100.00;99042.72;5094764;23;21166;-96
2022/10/19 06:28:33;;;;;;;15.97;11.17;;;;;;;14.95;100.00;99032.16;5119355;23;20622;-95
2022/10/19 06:30:39;;;;;;;19.73;12.20;;;;;;;15.16;100.00;99033.28;5094263;23;21062;-96
2022/10/19 06:32:43;;;;;;;17.57;11.33;;;;;;;15.17;100.00;99027.94;5095909;23;20568;-96
2022/10/19 06:34:46;;;;;;;15.57;11.20;;;;;;;15.23;100.00;99026.66;5125129;23;20588;-96
2022/10/19 06:36:49;;;;;;;17.43;12.20;;;;;;;15.28;100.00;99028.00;5120486;23;20635;-96
2022/10/19 06:38:53;;;;;;;18.07;11.57;;;;;;;15.38;100.00;99038.69;5121293;23;20595;-96
2022/10/19 06:40:58;;;;;;;15.27;11.40;;;;;;;15.53;100.00;99033.19;5094361;23;20976;-96
2022/10/19 06:43:02;;;;;;;19.63;11.30;;;;;;;15.64;100.00;99027.97;5120008;23;20577;-96
2022/10/19 06:45:08;;;;;;;15.47;11.20;;;;;;;15.77;100.00;99037.47;5095321;23;20691;-96
2022/10/19 06:47:11;;;;;;;16.77;11.17;;;;;;;15.92;100.00;99043.38;5120077;23;20585;-96
2022/10/19 06:49:15;;;;;;;16.10;11.20;;;;;;;16.00;100.00;99041.00;5119972;23;21086;-96
2022/10/19 06:51:18;;;;;;;16.30;10.70;;;;;;;16.01;100.00;99043.50;5119161;23;20696;-96
2022/10/19 06:53:22;;;;;;;14.67;11.00;;;;;;;15.95;100.00;99045.78;5119660;23;20615;-96
2022/10/19 06:55:26;;;;;;;17.13;10.73;;;;;;;15.91;100.00;99050.44;5119648;23;20965;-96
2022/10/19 06:57:29;;;;;;;17.60;12.33;;;;;;;15.86;100.00;99052.59;5120273;23;20587;-96
2022/10/19 06:59:33;;;;;;;16.97;11.40;;;;;;;15.86;100.00;99055.22;5119815;23;21126;-96
2022/10/19 07:01:38;;;;;;;14.53;10.40;;;;;;;15.89;100.00;99056.75;5119575;23;20902;-96
2022/10/19 07:03:42;;;;;;;17.70;11.03;;;;;;;15.94;100.00;99054.66;5095260;23;20600;-96
2022/10/19 07:05:53;;;;;;;17.63;11.33;;;;;;;16.00;100.00;99062.06;5096203;23;20594;-96
2022/10/19 07:07:57;;;;;;;14.90;10.63;;;;;;;16.00;100.00;99057.66;5120003;23;20584;-96
2022/10/19 07:10:00;;;;;;;14.33;10.40;;;;;;;16.01;100.00;99048.78;5095364;23;20703;-96
2022/10/19 07:12:05;;;;;;;14.03;10.70;;;;;;;16.03;100.00;99054.78;5119519;23;21143;-96
2022/10/19 07:14:09;;;;;;;13.80;10.33;;;;;;;16.07;100.00;99056.22;5120131;23;20583;-96
2022/10/19 07:16:14;;;;;;;16.30;10.87;;;;;;;16.10;100.00;99058.63;5120586;23;20613;-96
2022/10/19 07:18:25;;;;;;;16.47;11.10;;;;;;;16.11;100.00;99066.41;5120929;23;20644;-96
2022/10/19 07:20:28;;;;;;;15.00;11.33;;;;;;;16.13;100.00;99056.63;5095508;23;20644;-96
2022/10/19 07:22:35;;;;;;;14.90;10.77;;;;;;;16.13;100.00;99058.38;5094584;23;20677;-96
2022/10/19 07:24:38;;;;;;;16.07;10.60;;;;;;;16.19;100.00;99060.56;5096077;23;20613;-96
2022/10/19 07:26:42;;;;;;;16.20;10.47;;;;;;;16.24;100.00;99055.84;5119832;23;20588;-96
2022/10/19 07:28:46;;;;;;;14.77;9.67;;;;;;;16.35;100.00;99063.75;5120539;23;20621;-96
2022/10/19 07:30:50;;;;;;;14.20;9.30;;;;;;;16.34;100.00;99056.81;5119883;23;20620;-96
2022/10/19 07:32:53;;;;;;;16.40;9.63;;;;;;;16.36;100.00;99053.13;5119532;23;20591;-96
2022/10/19 07:34:58;;;;;;;13.57;9.70;;;;;;;16.42;100.00;99062.31;5095965;23;20930;-96
2022/10/19 07:37:02;;;;;;;13.33;9.73;;;;;;;16.43;100.00;99056.13;5120108;23;20588;-96
2022/10/19 07:39:07;;;;;;;13.90;9.63;;;;;;;16.49;100.00;99063.53;5120508;23;20589;-96
2022/10/19 07:41:12;;;;;;;12.30;9.10;;;;;;;16.51;100.00;99060.69;5098462;23;20581;-96
2022/10/19 07:43:16;;;;;;;14.37;11.03;;;;;;;16.54;100.00;99056.97;5098776;23;20645;-96
2022/10/19 07:45:24;;;;;;;12.20;9.60;;;;;;;16.55;100.00;99059.50;5122473;23;20553;-96
2022/10/19 07:55:49;;;;;;;11.80;8.83;;;;;;;16.62;100.00;99078.28;5141487;23;20620;-95
2022/10/19 07:57:52;;;;;;;12.70;9.40;;;;;;;16.64;99.82;99071.97;5091463;23;20668;-95
2022/10/19 07:59:55;;;;;;;11.73;9.00;;;;;;;16.66;99.40;99072.69;5090985;23;20677;-95
2022/10/19 08:02:01;;;;;;;11.97;8.70;;;;;;;16.70;100.00;99068.84;5091951;23;21113;-95
2022/10/19 08:04:05;;;;;;;12.27;9.17;;;;;;;16.74;99.93;99074.72;5091351;23;20586;-96
2022/10/19 08:06:30;;;;;;;13.30;8.70;;;;;;;16.74;99.12;99075.56;5091517;23;20570;-96
2022/10/19 08:08:34;;;;;;;10.87;8.70;;;;;;;16.74;98.72;99074.72;5084978;23;20615;-95
2022/10/19 08:10:38;;;;;;;12.93;9.53;;;;;;;16.78;98.67;99077.00;5069331;23;20611;-95
2022/10/19 08:12:43;;;;;;;13.07;9.73;;;;;;;16.83;99.43;99084.56;5094086;23;20593;-95
2022/10/19 08:14:46;;;;;;;11.40;9.00;;;;;;;16.87;99.51;99080.69;5093202;23;20592;-95
2022/10/19 08:16:50;;;;;;;10.93;9.33;;;;;;;16.92;99.40;99075.94;5093454;23;20662;-96
2022/10/19 08:18:57;;;;;;;11.90;8.83;;;;;;;16.96;98.57;99080.00;5094207;23;20582;-95
2022/10/19 08:21:02;;;;;;;11.20;8.40;;;;;;;16.98;98.37;99081.56;5068845;23;20958;-95
2022/10/19 08:23:05;;;;;;;9.80;7.70;;;;;;;17.00;97.45;99084.91;5069127;23;20705;-94
2022/10/19 08:25:09;;;;;;;10.27;8.43;;;;;;;17.01;97.98;99081.31;5093331;23;20581;-95
2022/10/19 08:27:13;;;;;;;10.93;8.57;;;;;;;17.03;97.34;99076.75;5068894;23;20581;-94
2022/10/19 08:29:19;;;;;;;10.27;7.90;;;;;;;17.08;97.04;99074.63;5069325;23;20630;-94
2022/10/19 08:31:23;;;;;;;9.60;7.77;;;;;;;17.08;96.19;99071.97;5093723;23;20608;-95
2022/10/19 08:33:26;;;;;;;9.80;7.97;;;;;;;17.11;96.26;99069.09;5093895;23;20575;-96
2022/10/19 08:35:30;;;;;;;10.60;8.57;;;;;;;17.17;96.22;99065.94;5092343;23;20684;-95
2022/10/19 08:37:34;;;;;;;11.73;8.03;;;;;;;17.19;95.81;99067.53;5093736;23;20686;-95
2022/10/19 08:39:49;;;;;;;10.57;7.90;;;;;;;17.26;95.42;99062.63;5093760;23;20641;-95
2022/10/19 08:41:58;;;;;;;12.03;8.43;;;;;;;17.26;95.39;99059.97;5069348;23;20965;-95
2022/10/19 08:44:23;;;;;;;9.80;8.03;;;;;;;17.30;96.21;99058.78;5093861;23;20597;-95
2022/10/19 08:46:32;;;;;;;12.00;8.80;;;;;;;17.35;94.25;99065.38;5069059;23;20622;-94
2022/10/19 08:48:38;;;;;;;9.70;7.73;;;;;;;17.39;94.94;99063.34;5068646;23;20647;-94
2022/10/19 08:50:43;;;;;;;12.00;9.00;;;;;;;17.41;95.13;99070.19;5117613;23;20990;-96
2022/10/19 08:52:51;;;;;;;12.53;8.30;;;;;;;17.43;94.72;99062.97;5069205;23;20588;-95
2022/10/19 08:54:57;;;;;;;10.37;7.67;;;;;;;17.46;94.43;99066.19;5069094;23;20599;-94
2022/10/19 08:57:07;;;;;;;10.60;7.53;;;;;;;17.46;94.08;99064.53;5085970;23;20595;-94
2022/10/19 08:59:14;;;;;;;9.97;7.50;;;;;;;17.47;94.41;99062.59;5118736;23;20676;-95
2022/10/19 09:01:29;;;;;;;11.77;8.30;;;;;;;17.54;94.06;99061.13;5095780;23;20615;-96
2022/10/19 09:03:46;;;;;;;9.40;7.57;;;;;;;17.63;93.48;99068.28;5102423;23;20609;-96
2022/10/19 09:06:07;;;;;;;8.73;7.10;;;;;;;17.72;93.89;99066.72;5101470;23;20571;-96
2022/10/19 09:08:11;;;;;;;10.50;7.07;;;;;;;17.74;92.78;99070.94;5125350;23;20574;-96
2022/10/19 09:10:23;;;;;;;7.97;6.60;;;;;;;17.75;92.01;99059.38;5102652;23;20582;-96
2022/10/19 09:12:42;;;;;;;7.63;6.53;;;;;;;17.81;92.37;99063.34;5100506;23;20705;-96
2022/10/19 09:14:54;;;;;;;9.13;6.90;;;;;;;17.84;92.42;99063.91;5126406;23;20979;-96
2022/10/19 09:17:03;;;;;;;9.70;7.90;;;;;;;17.92;91.97;99065.94;5126806;23;20566;-96
2022/10/19 09:19:24;;;;;;;10.13;7.10;;;;;;;17.93;92.14;99063.16;5125768;23;20577;-96
2022/10/19 09:21:35;;;;;;;8.87;7.07;;;;;;;17.92;91.96;99050.94;5098833;23;20577;-96
2022/10/19 09:23:55;;;;;;;9.00;6.10;;;;;;;18.03;92.28;99056.16;5100608;23;20587;-96
2022/10/19 09:25:58;;;;;;;7.97;5.93;;;;;;;18.10;91.39;99054.69;5099703;23;20595;-96
2022/10/19 09:28:10;;;;;;;8.67;6.00;;;;;;;18.13;91.24;99052.69;5097816;23;20656;-96
2022/10/19 09:30:18;;;;;;;9.53;5.63;;;;;;;18.21;92.21;99054.69;5122730;23;20585;-96
2022/10/19 09:32:26;;;;;;;7.23;5.67;;;;;;;18.27;91.15;99062.09;5099818;23;20611;-96
2022/10/19 09:34:32;;;;;;;7.67;5.33;;;;;;;18.30;91.17;99049.47;5100961;23;20961;-96
2022/10/19 09:36:38;;;;;;;7.07;5.30;;;;;;;18.34;91.08;99050.03;5100129;23;20583;-96
2022/10/19 09:38:53;;;;;;;6.20;4.73;;;;;;;18.43;91.40;99045.66;5124615;23;20641;-96
2022/10/19 09:40:57;;;;;;;6.80;5.00;;;;;;;18.54;90.26;99042.94;5123883;23;20689;-96
2022/10/19 09:43:17;;;;;;;5.93;4.60;;;;;;;18.62;89.53;99045.75;5123508;23;20855;-96
2022/10/19 09:45:32;;;;;;;6.97;4.57;;;;;;;18.63;89.23;99039.50;5096173;23;21080;-96
2022/10/19 09:47:38;;;;;;;7.10;4.30;;;;;;;18.67;89.61;99038.28;5096937;23;20575;-95
2022/10/19 09:49:43;;;;;;;5.53;4.47;;;;;;;18.71;89.66;99041.50;5096380;23;20583;-96
2022/10/19 09:51:50;;;;;;;5.70;4.17;;;;;;;18.74;89.29;99042.06;5096508;23;20672;-96
2022/10/19 09:53:54;;;;;;;5.03;4.20;;;;;;;18.80;88.96;99038.88;5096505;23;20615;-96
2022/10/19 09:56:00;;;;;;;4.87;4.10;;;;;;;18.87;89.28;99041.84;5120279;23;20591;-96
2022/10/19 09:58:06;;;;;;;6.57;4.70;;;;;;;18.90;87.64;99045.06;5120472;23;20587;-96
2022/10/19 10:00:18;;;;;;;6.60;5.90;;;;;;;18.96;88.61;99040.06;5120931;23;20575;-96
2022/10/19 10:02:22;;;;;;;5.93;5.00;;;;;;;19.04;86.29;99050.03;5096055;23;20581;-96
2022/10/19 10:04:29;;;;;;;7.60;5.73;;;;;;;18.97;85.85;99046.19;5120632;23;20687;-96
2022/10/19 10:06:33;;;;;;;6.20;4.87;;;;;;;18.94;86.67;99035.88;5121533;23;20637;-96
2022/10/19 10:08:39;;;;;;;8.90;5.70;;;;;;;19.00;87.84;99030.91;5094996;23;20611;-96
2022/10/19 10:10:45;;;;;;;6.27;4.80;;;;;;;18.91;87.83;99020.28;5095730;23;20983;-96
2022/10/19 10:12:49;;;;;;;5.93;4.60;;;;;;;18.98;87.52;99029.38;5095395;23;20612;-96
2022/10/19 10:14:54;;;;;;;7.33;4.97;;;;;;;19.11;86.46;99029.97;5095654;23;20595;-96
2022/10/19 10:17:02;;;;;;;10.43;5.00;;;;;;;19.08;85.99;99032.94;5120178;23;20683;-95
2022/10/19 10:19:08;;;;;;;8.00;6.07;;;;;;;18.98;86.34;99024.06;5095075;23;20642;-96
2022/10/19 10:21:15;;;;;;;7.50;4.70;;;;;;;18.91;87.55;99029.06;5119944;23;20602;-96
2022/10/19 10:23:24;;;;;;;10.03;6.07;;;;;;;18.79;87.49;99020.50;5120556;23;20682;-96
2022/10/19 10:25:30;;;;;;;6.03;5.23;;;;;;;18.92;88.67;99022.78;5120157;23;21145;-95